PWSweather.com
Personal Weather Stations
Station Observations
WXGLH1124
Southern Oaks, Indianapolis, IN 46217

Southern OaksIndianapolis, IN 46217

Lat: 39.65113, Lon: -86.16866

Elevation: 720

Station Type: Vantage Pro2

High Low Average
Temperature 57.1°F13.9°C 42.6°F5.9°C 52.1°F11.2°C
Dew Point 54.8°F12.7°C 38.8°F3.8°C 49.2°F9.6°C
Winds 18.0 mph 29.0 kmh Calm Calm 4.0 mph SSW6.4 kmh SSW
Wind Gusts 19.0 mph30.6 kmh -- 5.0 mph8.0 kmh
Humidity 93% 80% 90%
Pressure 29.95 in1014.2 mb 29.58 in1001.7 mb -
Precipitation 0.00 in0.0 mm - -
Hour Temp Dew Point Humidity Winds Wind Gusts Pressure Precip Precip Rate Daily Precip Total
12:05 AM 53.8°F12.1°C 51.2°F10.7°C 91% Calm Calm 2.0 mph3.2 kmh 29.77 in1008.1 mb 0.00 in0.0 mm 0.00 in0.0 mm 0.00 in0.0 mm
12:10 AM 53.7°F12.1°C 51.1°F10.6°C 91% Calm Calm 1.0 mph1.6 kmh 29.77 in1008.1 mb 0.00 in0.0 mm 0.00 in0.0 mm 0.00 in0.0 mm
12:15 AM 53.7°F12.1°C 51.1°F10.6°C 91% Calm Calm -- 29.78 in1008.5 mb 0.00 in0.0 mm 0.00 in0.0 mm 0.00 in0.0 mm
12:20 AM 53.7°F12.1°C 51.4°F10.8°C 92% Calm Calm -- 29.77 in1008.1 mb 0.00 in0.0 mm 0.00 in0.0 mm 0.00 in0.0 mm
12:25 AM 53.7°F12.1°C 51.4°F10.8°C 92% 2.0 mph SE3.2 kmh SE 2.0 mph3.2 kmh 29.78 in1008.5 mb 0.00 in0.0 mm 0.00 in0.0 mm 0.00 in0.0 mm
12:30 AM 53.7°F12.1°C 51.4°F10.8°C 92% Calm Calm -- 29.77 in1008.1 mb 0.00 in0.0 mm 0.00 in0.0 mm 0.00 in0.0 mm
12:35 AM 53.6°F12.0°C 51.3°F10.7°C 92% Calm Calm -- 29.78 in1008.5 mb 0.00 in0.0 mm 0.00 in0.0 mm 0.00 in0.0 mm
12:40 AM 53.6°F12.0°C 51.3°F10.7°C 92% Calm Calm -- 29.77 in1008.1 mb 0.00 in0.0 mm 0.00 in0.0 mm 0.00 in0.0 mm
12:45 AM 53.7°F12.1°C 51.4°F10.8°C 92% Calm Calm -- 29.77 in1008.1 mb 0.00 in0.0 mm 0.00 in0.0 mm 0.00 in0.0 mm
12:49 AM 53.7°F12.1°C 51.4°F10.8°C 92% 2.0 mph SE3.2 kmh SE 2.0 mph3.2 kmh 29.77 in1008.1 mb 0.00 in0.0 mm 0.00 in0.0 mm 0.00 in0.0 mm
12:55 AM 53.7°F12.1°C 51.4°F10.8°C 92% Calm Calm -- 29.77 in1008.1 mb 0.00 in0.0 mm 0.00 in0.0 mm 0.00 in0.0 mm
01:00 AM 53.7°F12.1°C 51.4°F10.8°C 92% Calm Calm 1.0 mph1.6 kmh 29.77 in1008.1 mb 0.00 in0.0 mm 0.00 in0.0 mm 0.00 in0.0 mm
01:05 AM 53.7°F12.1°C 51.4°F10.8°C 92% 1.0 mph SE1.6 kmh SE 1.0 mph1.6 kmh 29.77 in1008.1 mb 0.00 in0.0 mm 0.00 in0.0 mm 0.00 in0.0 mm
01:10 AM 53.7°F12.1°C 51.4°F10.8°C 92% Calm Calm 1.0 mph1.6 kmh 29.77 in1008.1 mb 0.00 in0.0 mm 0.00 in0.0 mm 0.00 in0.0 mm
01:15 AM 53.6°F12.0°C 51.3°F10.7°C 92% Calm Calm -- 29.77 in1008.1 mb 0.00 in0.0 mm 0.00 in0.0 mm 0.00 in0.0 mm
01:20 AM 53.6°F12.0°C 51.3°F10.7°C 92% Calm Calm -- 29.76 in1007.8 mb 0.00 in0.0 mm 0.00 in0.0 mm 0.00 in0.0 mm
01:25 AM 53.6°F12.0°C 51.3°F10.7°C 92% Calm Calm -- 29.76 in1007.8 mb 0.00 in0.0 mm 0.00 in0.0 mm 0.00 in0.0 mm
01:30 AM 53.6°F12.0°C 51.3°F10.7°C 92% Calm Calm -- 29.76 in1007.8 mb 0.00 in0.0 mm 0.00 in0.0 mm 0.00 in0.0 mm
01:35 AM 53.6°F12.0°C 51.3°F10.7°C 92% 1.0 mph SE1.6 kmh SE 1.0 mph1.6 kmh 29.75 in1007.5 mb 0.00 in0.0 mm 0.00 in0.0 mm 0.00 in0.0 mm
01:40 AM 53.5°F11.9°C 51.2°F10.7°C 92% Calm Calm -- 29.75 in1007.5 mb 0.00 in0.0 mm 0.00 in0.0 mm 0.00 in0.0 mm
01:44 AM 53.6°F12.0°C 51.3°F10.7°C 92% Calm Calm -- 29.75 in1007.5 mb 0.00 in0.0 mm 0.00 in0.0 mm 0.00 in0.0 mm
01:50 AM 53.5°F11.9°C 51.2°F10.7°C 92% Calm Calm -- 29.75 in1007.5 mb 0.00 in0.0 mm 0.00 in0.0 mm 0.00 in0.0 mm
01:55 AM 53.5°F11.9°C 51.2°F10.7°C 92% Calm Calm -- 29.74 in1007.1 mb 0.00 in0.0 mm 0.00 in0.0 mm 0.00 in0.0 mm
02:00 AM 53.5°F11.9°C 51.2°F10.7°C 92% Calm Calm -- 29.74 in1007.1 mb 0.00 in0.0 mm 0.00 in0.0 mm 0.00 in0.0 mm
02:05 AM 53.5°F11.9°C 51.2°F10.7°C 92% Calm Calm -- 29.74 in1007.1 mb 0.00 in0.0 mm 0.00 in0.0 mm 0.00 in0.0 mm
02:10 AM 53.6°F12.0°C 51.3°F10.7°C 92% Calm Calm -- 29.75 in1007.5 mb 0.00 in0.0 mm 0.00 in0.0 mm 0.00 in0.0 mm
02:15 AM 53.6°F12.0°C 51.3°F10.7°C 92% Calm Calm -- 29.74 in1007.1 mb 0.00 in0.0 mm 0.00 in0.0 mm 0.00 in0.0 mm
02:19 AM 53.6°F12.0°C 51.3°F10.7°C 92% Calm Calm -- 29.74 in1007.1 mb 0.00 in0.0 mm 0.00 in0.0 mm 0.00 in0.0 mm
02:25 AM 53.6°F12.0°C 51.3°F10.7°C 92% Calm Calm -- 29.74 in1007.1 mb 0.00 in0.0 mm 0.00 in0.0 mm 0.00 in0.0 mm
02:29 AM 53.6°F12.0°C 51.3°F10.7°C 92% Calm Calm -- 29.74 in1007.1 mb 0.00 in0.0 mm 0.00 in0.0 mm 0.00 in0.0 mm
02:35 AM 53.6°F12.0°C 51.3°F10.7°C 92% Calm Calm -- 29.74 in1007.1 mb 0.00 in0.0 mm 0.00 in0.0 mm 0.00 in0.0 mm
02:40 AM 53.5°F11.9°C 51.2°F10.7°C 92% Calm Calm -- 29.74 in1007.1 mb 0.00 in0.0 mm 0.00 in0.0 mm 0.00 in0.0 mm
02:44 AM 53.5°F11.9°C 51.2°F10.7°C 92% Calm Calm -- 29.74 in1007.1 mb 0.00 in0.0 mm 0.00 in0.0 mm 0.00 in0.0 mm
02:49 AM 53.6°F12.0°C 51.3°F10.7°C 92% 2.0 mph ESE3.2 kmh ESE 2.0 mph3.2 kmh 29.74 in1007.1 mb 0.00 in0.0 mm 0.00 in0.0 mm 0.00 in0.0 mm
02:55 AM 53.6°F12.0°C 51.3°F10.7°C 92% Calm Calm -- 29.75 in1007.5 mb 0.00 in0.0 mm 0.00 in0.0 mm 0.00 in0.0 mm
03:00 AM 53.6°F12.0°C 51.3°F10.7°C 92% Calm Calm -- 29.75 in1007.5 mb 0.00 in0.0 mm 0.00 in0.0 mm 0.00 in0.0 mm
03:05 AM 53.5°F11.9°C 51.2°F10.7°C 92% 1.0 mph ESE1.6 kmh ESE 2.0 mph3.2 kmh 29.74 in1007.1 mb 0.00 in0.0 mm 0.00 in0.0 mm 0.00 in0.0 mm
03:10 AM 53.6°F12.0°C 51.3°F10.7°C 92% Calm Calm -- 29.74 in1007.1 mb 0.00 in0.0 mm 0.00 in0.0 mm 0.00 in0.0 mm
03:15 AM 53.5°F11.9°C 51.2°F10.7°C 92% Calm Calm -- 29.75 in1007.5 mb 0.00 in0.0 mm 0.00 in0.0 mm 0.00 in0.0 mm
03:20 AM 53.5°F11.9°C 51.2°F10.7°C 92% Calm Calm -- 29.74 in1007.1 mb 0.00 in0.0 mm 0.00 in0.0 mm 0.00 in0.0 mm
03:25 AM 53.5°F11.9°C 51.2°F10.7°C 92% Calm Calm -- 29.74 in1007.1 mb 0.00 in0.0 mm 0.00 in0.0 mm 0.00 in0.0 mm
03:30 AM 53.5°F11.9°C 51.2°F10.7°C 92% Calm Calm -- 29.75 in1007.5 mb 0.00 in0.0 mm 0.00 in0.0 mm 0.00 in0.0 mm
03:35 AM 53.6°F12.0°C 51.3°F10.7°C 92% Calm Calm -- 29.75 in1007.5 mb 0.00 in0.0 mm 0.00 in0.0 mm 0.00 in0.0 mm
03:40 AM 53.6°F12.0°C 51.3°F10.7°C 92% Calm Calm -- 29.75 in1007.5 mb 0.00 in0.0 mm 0.00 in0.0 mm 0.00 in0.0 mm
03:45 AM 53.6°F12.0°C 51.3°F10.7°C 92% Calm Calm -- 29.75 in1007.5 mb 0.00 in0.0 mm 0.00 in0.0 mm 0.00 in0.0 mm
03:49 AM 53.6°F12.0°C 51.3°F10.7°C 92% Calm Calm -- 29.74 in1007.1 mb 0.00 in0.0 mm 0.00 in0.0 mm 0.00 in0.0 mm
03:55 AM 53.5°F11.9°C 51.2°F10.7°C 92% Calm Calm -- 29.73 in1006.8 mb 0.00 in0.0 mm 0.00 in0.0 mm 0.00 in0.0 mm
04:00 AM 53.5°F11.9°C 51.2°F10.7°C 92% Calm Calm -- 29.71 in1006.1 mb 0.00 in0.0 mm 0.00 in0.0 mm 0.00 in0.0 mm
04:05 AM 53.5°F11.9°C 51.2°F10.7°C 92% Calm Calm -- 29.70 in1005.8 mb 0.00 in0.0 mm 0.00 in0.0 mm 0.00 in0.0 mm
04:09 AM 53.4°F11.9°C 51.1°F10.6°C 92% Calm Calm -- 29.70 in1005.8 mb 0.00 in0.0 mm 0.00 in0.0 mm 0.00 in0.0 mm
04:15 AM 53.4°F11.9°C 51.1°F10.6°C 92% Calm Calm -- 29.69 in1005.4 mb 0.00 in0.0 mm 0.00 in0.0 mm 0.00 in0.0 mm
04:19 AM 53.4°F11.9°C 51.1°F10.6°C 92% 2.0 mph SSE3.2 kmh SSE 4.0 mph6.4 kmh 29.69 in1005.4 mb 0.00 in0.0 mm 0.00 in0.0 mm 0.00 in0.0 mm
04:24 AM 53.4°F11.9°C 51.1°F10.6°C 92% Calm Calm -- 29.69 in1005.4 mb 0.00 in0.0 mm 0.00 in0.0 mm 0.00 in0.0 mm
04:30 AM 53.4°F11.9°C 51.1°F10.6°C 92% Calm Calm -- 29.70 in1005.8 mb 0.01 in0.3 mm 0.10 in2.5 mm 0.01 in0.3 mm
04:35 AM 53.4°F11.9°C 51.1°F10.6°C 92% Calm Calm -- 29.70 in1005.8 mb 0.01 in0.3 mm 0.00 in0.0 mm 0.01 in0.3 mm
04:40 AM 53.4°F11.9°C 51.1°F10.6°C 92% Calm Calm -- 29.71 in1006.1 mb 0.01 in0.3 mm 0.00 in0.0 mm 0.01 in0.3 mm
04:45 AM 53.4°F11.9°C 51.1°F10.6°C 92% Calm Calm -- 29.72 in1006.4 mb 0.01 in0.3 mm 0.00 in0.0 mm 0.01 in0.3 mm
04:49 AM 53.4°F11.9°C 51.1°F10.6°C 92% Calm Calm -- 29.70 in1005.8 mb 0.01 in0.3 mm 0.00 in0.0 mm 0.01 in0.3 mm
04:55 AM 53.3°F11.8°C 51.0°F10.6°C 92% Calm Calm -- 29.70 in1005.8 mb 0.01 in0.3 mm 0.00 in0.0 mm 0.01 in0.3 mm
05:00 AM 53.3°F11.8°C 51.0°F10.6°C 92% Calm Calm -- 29.70 in1005.8 mb 0.01 in0.3 mm 0.00 in0.0 mm 0.01 in0.3 mm
05:05 AM 53.3°F11.8°C 51.0°F10.6°C 92% Calm Calm -- 29.70 in1005.8 mb 0.02 in0.5 mm 0.12 in3.0 mm 0.02 in0.5 mm
05:10 AM 53.3°F11.8°C 51.0°F10.6°C 92% 3.0 mph ESE4.8 kmh ESE 3.0 mph4.8 kmh 29.67 in1004.7 mb 0.02 in0.5 mm 0.00 in0.0 mm 0.02 in0.5 mm
05:15 AM 53.3°F11.8°C 51.0°F10.6°C 92% Calm Calm -- 29.69 in1005.4 mb 0.02 in0.5 mm 0.00 in0.0 mm 0.02 in0.5 mm
05:20 AM 53.4°F11.9°C 51.1°F10.6°C 92% Calm Calm -- 29.70 in1005.8 mb 0.02 in0.5 mm 0.00 in0.0 mm 0.02 in0.5 mm
05:25 AM 53.4°F11.9°C 51.1°F10.6°C 92% Calm Calm -- 29.69 in1005.4 mb 0.02 in0.5 mm 0.00 in0.0 mm 0.02 in0.5 mm
05:30 AM 53.4°F11.9°C 51.1°F10.6°C 92% Calm Calm -- 29.68 in1005.1 mb 0.01 in0.3 mm 0.00 in0.0 mm 0.02 in0.5 mm
05:35 AM 53.4°F11.9°C 51.1°F10.6°C 92% Calm Calm -- 29.67 in1004.7 mb 0.01 in0.3 mm 0.00 in0.0 mm 0.02 in0.5 mm
05:40 AM 53.4°F11.9°C 51.1°F10.6°C 92% Calm Calm -- 29.65 in1004.1 mb 0.01 in0.3 mm 0.00 in0.0 mm 0.02 in0.5 mm
05:44 AM 53.4°F11.9°C 51.1°F10.6°C 92% Calm Calm 1.0 mph1.6 kmh 29.65 in1004.1 mb 0.01 in0.3 mm 0.00 in0.0 mm 0.02 in0.5 mm
05:50 AM 53.5°F11.9°C 51.2°F10.7°C 92% Calm Calm -- 29.65 in1004.1 mb 0.01 in0.3 mm 0.00 in0.0 mm 0.02 in0.5 mm
05:55 AM 53.5°F11.9°C 51.2°F10.7°C 92% Calm Calm 1.0 mph1.6 kmh 29.64 in1003.7 mb 0.01 in0.3 mm 0.00 in0.0 mm 0.02 in0.5 mm
06:00 AM 53.5°F11.9°C 51.2°F10.7°C 92% Calm Calm -- 29.63 in1003.4 mb 0.01 in0.3 mm 0.00 in0.0 mm 0.02 in0.5 mm
06:05 AM 53.6°F12.0°C 51.3°F10.7°C 92% Calm Calm -- 29.64 in1003.7 mb 0.00 in0.0 mm 0.00 in0.0 mm 0.02 in0.5 mm
06:10 AM 53.6°F12.0°C 51.3°F10.7°C 92% 2.0 mph SSE3.2 kmh SSE 3.0 mph4.8 kmh 29.65 in1004.1 mb 0.00 in0.0 mm 0.00 in0.0 mm 0.02 in0.5 mm
06:15 AM 53.7°F12.1°C 51.4°F10.8°C 92% 1.0 mph SSE1.6 kmh SSE 1.0 mph1.6 kmh 29.66 in1004.4 mb 0.00 in0.0 mm 0.00 in0.0 mm 0.02 in0.5 mm
06:20 AM 53.8°F12.1°C 51.5°F10.8°C 92% 2.0 mph S3.2 kmh S 3.0 mph4.8 kmh 29.67 in1004.7 mb 0.00 in0.0 mm 0.00 in0.0 mm 0.02 in0.5 mm
06:25 AM 53.9°F12.2°C 51.6°F10.9°C 92% Calm Calm -- 29.67 in1004.7 mb 0.00 in0.0 mm 0.00 in0.0 mm 0.02 in0.5 mm
06:30 AM 53.9°F12.2°C 51.6°F10.9°C 92% 1.0 mph S1.6 kmh S 2.0 mph3.2 kmh 29.66 in1004.4 mb 0.00 in0.0 mm 0.00 in0.0 mm 0.02 in0.5 mm
06:35 AM 54.0°F12.2°C 51.7°F10.9°C 92% Calm Calm -- 29.65 in1004.1 mb 0.00 in0.0 mm 0.00 in0.0 mm 0.02 in0.5 mm
06:39 AM 54.0°F12.2°C 51.7°F10.9°C 92% 2.0 mph S3.2 kmh S 2.0 mph3.2 kmh 29.66 in1004.4 mb 0.00 in0.0 mm 0.00 in0.0 mm 0.02 in0.5 mm
06:45 AM 54.1°F12.3°C 51.8°F11.0°C 92% Calm Calm -- 29.66 in1004.4 mb 0.00 in0.0 mm 0.00 in0.0 mm 0.02 in0.5 mm
06:50 AM 54.2°F12.3°C 51.9°F11.1°C 92% 1.0 mph SSE1.6 kmh SSE 3.0 mph4.8 kmh 29.66 in1004.4 mb 0.00 in0.0 mm 0.00 in0.0 mm 0.02 in0.5 mm
06:55 AM 54.2°F12.3°C 51.9°F11.1°C 92% Calm Calm -- 29.65 in1004.1 mb 0.01 in0.3 mm 0.12 in3.0 mm 0.03 in0.8 mm
06:59 AM 54.3°F12.4°C 52.3°F11.3°C 93% Calm Calm -- 29.64 in1003.7 mb 0.01 in0.3 mm 0.00 in0.0 mm 0.03 in0.8 mm
07:05 AM 54.3°F12.4°C 52.3°F11.3°C 93% 2.0 mph SE3.2 kmh SE 3.0 mph4.8 kmh 29.64 in1003.7 mb 0.01 in0.3 mm 0.00 in0.0 mm 0.03 in0.8 mm
07:10 AM 54.4°F12.4°C 52.4°F11.3°C 93% Calm Calm -- 29.64 in1003.7 mb 0.01 in0.3 mm 0.00 in0.0 mm 0.03 in0.8 mm
07:15 AM 54.6°F12.6°C 52.6°F11.4°C 93% 2.0 mph S3.2 kmh S 3.0 mph4.8 kmh 29.65 in1004.1 mb 0.01 in0.3 mm 0.00 in0.0 mm 0.03 in0.8 mm
07:20 AM 54.6°F12.6°C 52.3°F11.3°C 92% 2.0 mph S3.2 kmh S 2.0 mph3.2 kmh 29.65 in1004.1 mb 0.01 in0.3 mm 0.00 in0.0 mm 0.03 in0.8 mm
07:25 AM 54.6°F12.6°C 52.3°F11.3°C 92% Calm Calm -- 29.66 in1004.4 mb 0.01 in0.3 mm 0.00 in0.0 mm 0.03 in0.8 mm
07:30 AM 54.7°F12.6°C 52.4°F11.3°C 92% 2.0 mph SW3.2 kmh SW 2.0 mph3.2 kmh 29.66 in1004.4 mb 0.01 in0.3 mm 0.00 in0.0 mm 0.03 in0.8 mm
07:35 AM 54.8°F12.7°C 52.5°F11.4°C 92% 1.0 mph SW1.6 kmh SW 2.0 mph3.2 kmh 29.67 in1004.7 mb 0.01 in0.3 mm 0.00 in0.0 mm 0.03 in0.8 mm
07:40 AM 54.9°F12.7°C 52.6°F11.4°C 92% 2.0 mph SSW3.2 kmh SSW 3.0 mph4.8 kmh 29.67 in1004.7 mb 0.01 in0.3 mm 0.00 in0.0 mm 0.03 in0.8 mm
07:45 AM 55.0°F12.8°C 53.0°F11.7°C 93% 1.0 mph SSW1.6 kmh SSW 1.0 mph1.6 kmh 29.65 in1004.1 mb 0.01 in0.3 mm 0.00 in0.0 mm 0.03 in0.8 mm
07:50 AM 55.1°F12.8°C 53.1°F11.7°C 93% Calm Calm -- 29.65 in1004.1 mb 0.01 in0.3 mm 0.00 in0.0 mm 0.03 in0.8 mm
07:54 AM 55.2°F12.9°C 53.2°F11.8°C 93% 1.0 mph S1.6 kmh S 2.0 mph3.2 kmh 29.64 in1003.7 mb 0.00 in0.0 mm 0.00 in0.0 mm 0.03 in0.8 mm
08:00 AM 55.3°F12.9°C 53.3°F11.8°C 93% 2.0 mph SW3.2 kmh SW 3.0 mph4.8 kmh 29.65 in1004.1 mb 0.01 in0.3 mm 0.01 in0.3 mm 0.04 in1.0 mm
08:05 AM 55.4°F13.0°C 53.4°F11.9°C 93% 1.0 mph SW1.6 kmh SW 2.0 mph3.2 kmh 29.65 in1004.1 mb 0.01 in0.3 mm 0.00 in0.0 mm 0.04 in1.0 mm
08:10 AM 55.5°F13.1°C 53.5°F11.9°C 93% 4.0 mph S6.4 kmh S 4.0 mph6.4 kmh 29.65 in1004.1 mb 0.01 in0.3 mm 0.00 in0.0 mm 0.04 in1.0 mm
08:15 AM 55.6°F13.1°C 53.6°F12.0°C 93% 1.0 mph SW1.6 kmh SW 3.0 mph4.8 kmh 29.65 in1004.1 mb 0.01 in0.3 mm 0.00 in0.0 mm 0.04 in1.0 mm
08:20 AM 55.7°F13.2°C 53.7°F12.1°C 93% 2.0 mph SW3.2 kmh SW 2.0 mph3.2 kmh 29.64 in1003.7 mb 0.02 in0.5 mm 0.12 in3.0 mm 0.05 in1.3 mm
08:25 AM 55.8°F13.2°C 53.8°F12.1°C 93% 3.0 mph SW4.8 kmh SW 4.0 mph6.4 kmh 29.65 in1004.1 mb 0.02 in0.5 mm 0.00 in0.0 mm 0.05 in1.3 mm
08:30 AM 55.9°F13.3°C 53.9°F12.2°C 93% 2.0 mph SW3.2 kmh SW 2.0 mph3.2 kmh 29.64 in1003.7 mb 0.02 in0.5 mm 0.00 in0.0 mm 0.05 in1.3 mm
08:35 AM 55.9°F13.3°C 53.9°F12.2°C 93% Calm Calm 1.0 mph1.6 kmh 29.64 in1003.7 mb 0.03 in0.8 mm 0.12 in3.0 mm 0.06 in1.5 mm
08:40 AM 55.9°F13.3°C 53.9°F12.2°C 93% 5.0 mph S8.0 kmh S 5.0 mph8.0 kmh 29.63 in1003.4 mb 0.03 in0.8 mm 0.00 in0.0 mm 0.06 in1.5 mm
08:45 AM 55.9°F13.3°C 53.9°F12.2°C 93% Calm Calm -- 29.62 in1003.0 mb 0.04 in1.0 mm 0.12 in3.0 mm 0.07 in1.8 mm
08:50 AM 55.9°F13.3°C 53.9°F12.2°C 93% 2.0 mph S3.2 kmh S 4.0 mph6.4 kmh 29.62 in1003.0 mb 0.04 in1.0 mm 0.00 in0.0 mm 0.07 in1.8 mm
08:55 AM 55.9°F13.3°C 53.9°F12.2°C 93% 5.0 mph SSW8.0 kmh SSW 6.0 mph9.7 kmh 29.61 in1002.7 mb 0.04 in1.0 mm 0.00 in0.0 mm 0.07 in1.8 mm
09:00 AM 55.9°F13.3°C 53.9°F12.2°C 93% 6.0 mph SSE9.7 kmh SSE 6.0 mph9.7 kmh 29.60 in1002.4 mb 0.03 in0.8 mm 0.00 in0.0 mm 0.07 in1.8 mm
09:04 AM 56.0°F13.3°C 54.0°F12.2°C 93% 8.0 mph SSE12.9 kmh SSE 8.0 mph12.9 kmh 29.60 in1002.4 mb 0.03 in0.8 mm 0.00 in0.0 mm 0.07 in1.8 mm
09:09 AM 56.0°F13.3°C 54.0°F12.2°C 93% Calm Calm -- 29.60 in1002.4 mb 0.04 in1.0 mm 0.12 in3.0 mm 0.08 in2.0 mm
09:15 AM 55.9°F13.3°C 53.9°F12.2°C 93% 4.0 mph S6.4 kmh S 5.0 mph8.0 kmh 29.59 in1002.0 mb 0.04 in1.0 mm 0.00 in0.0 mm 0.08 in2.0 mm
09:19 AM 56.0°F13.3°C 54.0°F12.2°C 93% 3.0 mph S4.8 kmh S 3.0 mph4.8 kmh 29.59 in1002.0 mb 0.03 in0.8 mm 0.00 in0.0 mm 0.08 in2.0 mm
09:24 AM 56.0°F13.3°C 54.0°F12.2°C 93% 4.0 mph SW6.4 kmh SW 5.0 mph8.0 kmh 29.60 in1002.4 mb 0.03 in0.8 mm 0.00 in0.0 mm 0.08 in2.0 mm
09:30 AM 56.0°F13.3°C 54.0°F12.2°C 93% 3.0 mph SW4.8 kmh SW 4.0 mph6.4 kmh 29.61 in1002.7 mb 0.03 in0.8 mm 0.00 in0.0 mm 0.08 in2.0 mm
09:35 AM 56.0°F13.3°C 54.0°F12.2°C 93% 2.0 mph SW3.2 kmh SW 3.0 mph4.8 kmh 29.61 in1002.7 mb 0.02 in0.5 mm 0.00 in0.0 mm 0.08 in2.0 mm
09:39 AM 56.1°F13.4°C 54.1°F12.3°C 93% 5.0 mph SW8.0 kmh SW 6.0 mph9.7 kmh 29.61 in1002.7 mb 0.02 in0.5 mm 0.00 in0.0 mm 0.08 in2.0 mm
09:45 AM 56.1°F13.4°C 54.1°F12.3°C 93% 4.0 mph SW6.4 kmh SW 5.0 mph8.0 kmh 29.62 in1003.0 mb 0.01 in0.3 mm 0.00 in0.0 mm 0.08 in2.0 mm
09:50 AM 56.2°F13.4°C 54.2°F12.3°C 93% 3.0 mph S4.8 kmh S 3.0 mph4.8 kmh 29.60 in1002.4 mb 0.01 in0.3 mm 0.00 in0.0 mm 0.08 in2.0 mm
09:55 AM 56.2°F13.4°C 54.2°F12.3°C 93% 4.0 mph SW6.4 kmh SW 5.0 mph8.0 kmh 29.60 in1002.4 mb 0.01 in0.3 mm 0.00 in0.0 mm 0.08 in2.0 mm
09:59 AM 56.3°F13.5°C 54.3°F12.4°C 93% 5.0 mph SW8.0 kmh SW 5.0 mph8.0 kmh 29.61 in1002.7 mb 0.01 in0.3 mm 0.00 in0.0 mm 0.08 in2.0 mm
10:05 AM 56.4°F13.6°C 54.4°F12.4°C 93% 5.0 mph SW8.0 kmh SW 7.0 mph11.3 kmh 29.60 in1002.4 mb 0.01 in0.3 mm 0.00 in0.0 mm 0.08 in2.0 mm
10:10 AM 56.4°F13.6°C 54.4°F12.4°C 93% 11.0 mph SW17.7 kmh SW 11.0 mph17.7 kmh 29.60 in1002.4 mb 0.00 in0.0 mm 0.00 in0.0 mm 0.08 in2.0 mm
10:15 AM 56.4°F13.6°C 54.4°F12.4°C 93% 7.0 mph SW11.3 kmh SW 7.0 mph11.3 kmh 29.61 in1002.7 mb 0.00 in0.0 mm 0.00 in0.0 mm 0.08 in2.0 mm
10:20 AM 56.5°F13.6°C 54.5°F12.5°C 93% 5.0 mph SW8.0 kmh SW 7.0 mph11.3 kmh 29.60 in1002.4 mb 0.00 in0.0 mm 0.00 in0.0 mm 0.08 in2.0 mm
10:25 AM 56.5°F13.6°C 54.5°F12.5°C 93% 3.0 mph SW4.8 kmh SW 5.0 mph8.0 kmh 29.60 in1002.4 mb 0.00 in0.0 mm 0.00 in0.0 mm 0.08 in2.0 mm
10:30 AM 56.5°F13.6°C 54.5°F12.5°C 93% 6.0 mph WSW9.7 kmh WSW 8.0 mph12.9 kmh 29.61 in1002.7 mb 0.00 in0.0 mm 0.00 in0.0 mm 0.08 in2.0 mm
10:35 AM 56.5°F13.6°C 54.5°F12.5°C 93% 6.0 mph SSW9.7 kmh SSW 8.0 mph12.9 kmh 29.61 in1002.7 mb 0.00 in0.0 mm 0.00 in0.0 mm 0.08 in2.0 mm
10:39 AM 56.6°F13.7°C 54.6°F12.6°C 93% 6.0 mph SW9.7 kmh SW 7.0 mph11.3 kmh 29.60 in1002.4 mb 0.00 in0.0 mm 0.00 in0.0 mm 0.08 in2.0 mm
10:44 AM 56.6°F13.7°C 54.6°F12.6°C 93% 4.0 mph WSW6.4 kmh WSW 8.0 mph12.9 kmh 29.60 in1002.4 mb 0.00 in0.0 mm 0.00 in0.0 mm 0.08 in2.0 mm
10:50 AM 56.6°F13.7°C 54.3°F12.4°C 92% 7.0 mph SW11.3 kmh SW 7.0 mph11.3 kmh 29.60 in1002.4 mb 0.01 in0.3 mm 0.10 in2.5 mm 0.09 in2.3 mm
10:55 AM 56.6°F13.7°C 54.3°F12.4°C 92% 1.0 mph SW1.6 kmh SW 4.0 mph6.4 kmh 29.59 in1002.0 mb 0.01 in0.3 mm 0.00 in0.0 mm 0.09 in2.3 mm
10:59 AM 56.6°F13.7°C 54.3°F12.4°C 92% 10.0 mph SW16.1 kmh SW 10.0 mph16.1 kmh 29.58 in1001.7 mb 0.01 in0.3 mm 0.00 in0.0 mm 0.09 in2.3 mm
11:05 AM 56.6°F13.7°C 54.3°F12.4°C 92% 7.0 mph SW11.3 kmh SW 7.0 mph11.3 kmh 29.59 in1002.0 mb 0.01 in0.3 mm 0.00 in0.0 mm 0.09 in2.3 mm
11:10 AM 56.6°F13.7°C 54.3°F12.4°C 92% 8.0 mph SW12.9 kmh SW 8.0 mph12.9 kmh 29.59 in1002.0 mb 0.02 in0.5 mm 0.12 in3.0 mm 0.10 in2.5 mm
11:15 AM 56.7°F13.7°C 54.4°F12.4°C 92% 6.0 mph SW9.7 kmh SW 8.0 mph12.9 kmh 29.59 in1002.0 mb 0.02 in0.5 mm 0.00 in0.0 mm 0.10 in2.5 mm
11:20 AM 56.7°F13.7°C 54.4°F12.4°C 92% 6.0 mph WSW9.7 kmh WSW 7.0 mph11.3 kmh 29.59 in1002.0 mb 0.02 in0.5 mm 0.00 in0.0 mm 0.10 in2.5 mm
11:25 AM 56.7°F13.7°C 54.4°F12.4°C 92% 4.0 mph SW6.4 kmh SW 8.0 mph12.9 kmh 29.59 in1002.0 mb 0.02 in0.5 mm 0.00 in0.0 mm 0.10 in2.5 mm
11:30 AM 56.7°F13.7°C 54.4°F12.4°C 92% 2.0 mph SW3.2 kmh SW 5.0 mph8.0 kmh 29.59 in1002.0 mb 0.02 in0.5 mm 0.00 in0.0 mm 0.10 in2.5 mm
11:35 AM 56.7°F13.7°C 54.4°F12.4°C 92% 5.0 mph SW8.0 kmh SW 5.0 mph8.0 kmh 29.60 in1002.4 mb 0.03 in0.8 mm 0.12 in3.0 mm 0.11 in2.8 mm
11:40 AM 56.7°F13.7°C 54.4°F12.4°C 92% 4.0 mph SW6.4 kmh SW 4.0 mph6.4 kmh 29.59 in1002.0 mb 0.04 in1.0 mm 0.12 in3.0 mm 0.12 in3.0 mm
11:45 AM 56.8°F13.8°C 54.5°F12.5°C 92% 5.0 mph SW8.0 kmh SW 9.0 mph14.5 kmh 29.58 in1001.7 mb 0.04 in1.0 mm 0.00 in0.0 mm 0.12 in3.0 mm
11:50 AM 56.8°F13.8°C 54.5°F12.5°C 92% 7.0 mph SW11.3 kmh SW 7.0 mph11.3 kmh 29.58 in1001.7 mb 0.03 in0.8 mm 0.00 in0.0 mm 0.12 in3.0 mm
11:55 AM 56.9°F13.8°C 54.6°F12.6°C 92% 3.0 mph SW4.8 kmh SW 5.0 mph8.0 kmh 29.58 in1001.7 mb 0.03 in0.8 mm 0.00 in0.0 mm 0.12 in3.0 mm
12:00 PM 56.9°F13.8°C 54.6°F12.6°C 92% 7.0 mph SW11.3 kmh SW 7.0 mph11.3 kmh 29.59 in1002.0 mb 0.03 in0.8 mm 0.00 in0.0 mm 0.12 in3.0 mm
12:04 PM 56.9°F13.8°C 54.6°F12.6°C 92% 6.0 mph SW9.7 kmh SW 10.0 mph16.1 kmh 29.58 in1001.7 mb 0.03 in0.8 mm 0.00 in0.0 mm 0.12 in3.0 mm
12:10 PM 57.0°F13.9°C 54.7°F12.6°C 92% 4.0 mph SW6.4 kmh SW 5.0 mph8.0 kmh 29.59 in1002.0 mb 0.02 in0.5 mm 0.00 in0.0 mm 0.12 in3.0 mm
12:15 PM 57.0°F13.9°C 54.7°F12.6°C 92% 6.0 mph SW9.7 kmh SW 9.0 mph14.5 kmh 29.58 in1001.7 mb 0.02 in0.5 mm 0.00 in0.0 mm 0.12 in3.0 mm
12:19 PM 57.0°F13.9°C 54.7°F12.6°C 92% 5.0 mph SW8.0 kmh SW 5.0 mph8.0 kmh 29.58 in1001.7 mb 0.02 in0.5 mm 0.00 in0.0 mm 0.12 in3.0 mm
12:25 PM 57.1°F13.9°C 54.8°F12.7°C 92% 9.0 mph SW14.5 kmh SW 10.0 mph16.1 kmh 29.58 in1001.7 mb 0.02 in0.5 mm 0.00 in0.0 mm 0.12 in3.0 mm
12:30 PM 57.1°F13.9°C 54.8°F12.7°C 92% 9.0 mph SW14.5 kmh SW 9.0 mph14.5 kmh 29.58 in1001.7 mb 0.02 in0.5 mm 0.00 in0.0 mm 0.12 in3.0 mm
12:35 PM 57.1°F13.9°C 54.8°F12.7°C 92% 7.0 mph SW11.3 kmh SW 8.0 mph12.9 kmh 29.58 in1001.7 mb 0.01 in0.3 mm 0.00 in0.0 mm 0.12 in3.0 mm
12:39 PM 57.1°F13.9°C 54.8°F12.7°C 92% 5.0 mph WSW8.0 kmh WSW 5.0 mph8.0 kmh 29.58 in1001.7 mb 0.00 in0.0 mm 0.00 in0.0 mm 0.12 in3.0 mm
12:44 PM 57.1°F13.9°C 54.8°F12.7°C 92% 2.0 mph WNW3.2 kmh WNW 4.0 mph6.4 kmh 29.59 in1002.0 mb 0.02 in0.5 mm 0.24 in6.1 mm 0.14 in3.6 mm
12:50 PM 56.7°F13.7°C 54.4°F12.4°C 92% 4.0 mph NW6.4 kmh NW 8.0 mph12.9 kmh 29.59 in1002.0 mb 0.06 in1.5 mm 0.40 in10.2 mm 0.18 in4.6 mm
12:55 PM 56.4°F13.6°C 54.1°F12.3°C 92% 6.0 mph WSW9.7 kmh WSW 9.0 mph14.5 kmh 29.60 in1002.4 mb 0.07 in1.8 mm 0.12 in3.0 mm 0.19 in4.8 mm
01:00 PM 56.0°F13.3°C 53.7°F12.1°C 92% 3.0 mph NW4.8 kmh NW 4.0 mph6.4 kmh 29.60 in1002.4 mb 0.07 in1.8 mm 0.00 in0.0 mm 0.19 in4.8 mm
01:04 PM 55.7°F13.2°C 53.4°F11.9°C 92% 3.0 mph NW4.8 kmh NW 3.0 mph4.8 kmh 29.60 in1002.4 mb 0.08 in2.0 mm 0.15 in3.8 mm 0.20 in5.1 mm
01:10 PM 54.7°F12.6°C 52.4°F11.3°C 92% 13.0 mph N20.9 kmh N 13.0 mph20.9 kmh 29.61 in1002.7 mb 0.08 in2.0 mm 0.00 in0.0 mm 0.20 in5.1 mm
01:14 PM 53.2°F11.8°C 50.7°F10.4°C 91% 4.0 mph WNW6.4 kmh WNW 9.0 mph14.5 kmh 29.61 in1002.7 mb 0.08 in2.0 mm 0.00 in0.0 mm 0.20 in5.1 mm
01:20 PM 52.4°F11.3°C 49.9°F9.9°C 91% 5.0 mph NW8.0 kmh NW 7.0 mph11.3 kmh 29.62 in1003.0 mb 0.08 in2.0 mm 0.00 in0.0 mm 0.20 in5.1 mm
01:25 PM 51.8°F11.0°C 49.3°F9.6°C 91% 6.0 mph NW9.7 kmh NW 7.0 mph11.3 kmh 29.62 in1003.0 mb 0.08 in2.0 mm 0.00 in0.0 mm 0.20 in5.1 mm
01:30 PM 51.4°F10.8°C 48.9°F9.4°C 91% 9.0 mph NNW14.5 kmh NNW 9.0 mph14.5 kmh 29.61 in1002.7 mb 0.08 in2.0 mm 0.00 in0.0 mm 0.20 in5.1 mm
01:35 PM 51.2°F10.7°C 48.7°F9.3°C 91% 8.0 mph NNW12.9 kmh NNW 12.0 mph19.3 kmh 29.61 in1002.7 mb 0.08 in2.0 mm 0.00 in0.0 mm 0.20 in5.1 mm
01:40 PM 51.2°F10.7°C 48.7°F9.3°C 91% 16.0 mph N25.7 kmh N 18.0 mph29.0 kmh 29.62 in1003.0 mb 0.08 in2.0 mm 0.00 in0.0 mm 0.20 in5.1 mm
01:45 PM 50.8°F10.4°C 48.3°F9.1°C 91% 9.0 mph NW14.5 kmh NW 12.0 mph19.3 kmh 29.65 in1004.1 mb 0.06 in1.5 mm 0.00 in0.0 mm 0.20 in5.1 mm
01:50 PM 49.6°F9.8°C 46.5°F8.1°C 89% 8.0 mph N12.9 kmh N 14.0 mph22.5 kmh 29.66 in1004.4 mb 0.03 in0.8 mm 0.00 in0.0 mm 0.20 in5.1 mm
01:55 PM 48.7°F9.3°C 45.6°F7.6°C 89% 9.0 mph N14.5 kmh N 10.0 mph16.1 kmh 29.66 in1004.4 mb 0.01 in0.3 mm 0.00 in0.0 mm 0.20 in5.1 mm
01:59 PM 48.3°F9.1°C 45.2°F7.3°C 89% 11.0 mph N17.7 kmh N 11.0 mph17.7 kmh 29.66 in1004.4 mb 0.01 in0.3 mm 0.00 in0.0 mm 0.20 in5.1 mm
02:05 PM 48.0°F8.9°C 44.9°F7.2°C 89% 12.0 mph N19.3 kmh N 12.0 mph19.3 kmh 29.66 in1004.4 mb 0.00 in0.0 mm 0.00 in0.0 mm 0.20 in5.1 mm
02:09 PM 48.0°F8.9°C 44.9°F7.2°C 89% 8.0 mph NNW12.9 kmh NNW 8.0 mph12.9 kmh 29.66 in1004.4 mb 0.00 in0.0 mm 0.00 in0.0 mm 0.20 in5.1 mm
02:15 PM 48.0°F8.9°C 44.6°F7.0°C 88% 8.0 mph NW12.9 kmh NW 8.0 mph12.9 kmh 29.66 in1004.4 mb 0.00 in0.0 mm 0.00 in0.0 mm 0.20 in5.1 mm
02:20 PM 48.0°F8.9°C 44.3°F6.8°C 87% 8.0 mph NW12.9 kmh NW 9.0 mph14.5 kmh 29.67 in1004.7 mb 0.00 in0.0 mm 0.00 in0.0 mm 0.20 in5.1 mm
02:25 PM 47.8°F8.8°C 44.1°F6.7°C 87% 15.0 mph NNW24.1 kmh NNW 17.0 mph27.4 kmh 29.68 in1005.1 mb 0.00 in0.0 mm 0.00 in0.0 mm 0.20 in5.1 mm
02:30 PM 47.4°F8.6°C 43.1°F6.2°C 85% 8.0 mph NW12.9 kmh NW 11.0 mph17.7 kmh 29.68 in1005.1 mb 0.00 in0.0 mm 0.00 in0.0 mm 0.20 in5.1 mm
02:35 PM 46.9°F8.3°C 42.6°F5.9°C 85% 8.0 mph N12.9 kmh N 8.0 mph12.9 kmh 29.68 in1005.1 mb 0.00 in0.0 mm 0.00 in0.0 mm 0.20 in5.1 mm
02:39 PM 46.8°F8.2°C 42.5°F5.8°C 85% 14.0 mph N22.5 kmh N 14.0 mph22.5 kmh 29.69 in1005.4 mb 0.00 in0.0 mm 0.00 in0.0 mm 0.20 in5.1 mm
02:45 PM 46.6°F8.1°C 42.3°F5.7°C 85% 5.0 mph N8.0 kmh N 8.0 mph12.9 kmh 29.69 in1005.4 mb 0.00 in0.0 mm 0.00 in0.0 mm 0.20 in5.1 mm
02:50 PM 46.5°F8.1°C 42.6°F5.9°C 86% 5.0 mph N8.0 kmh N 10.0 mph16.1 kmh 29.68 in1005.1 mb 0.00 in0.0 mm 0.00 in0.0 mm 0.20 in5.1 mm
02:55 PM 46.5°F8.1°C 42.6°F5.9°C 86% 4.0 mph N6.4 kmh N 5.0 mph8.0 kmh 29.68 in1005.1 mb 0.00 in0.0 mm 0.00 in0.0 mm 0.20 in5.1 mm
03:00 PM 46.5°F8.1°C 42.6°F5.9°C 86% 7.0 mph NNE11.3 kmh NNE 8.0 mph12.9 kmh 29.68 in1005.1 mb 0.00 in0.0 mm 0.00 in0.0 mm 0.20 in5.1 mm
03:05 PM 46.5°F8.1°C 42.2°F5.7°C 85% 8.0 mph N12.9 kmh N 8.0 mph12.9 kmh 29.68 in1005.1 mb 0.00 in0.0 mm 0.00 in0.0 mm 0.20 in5.1 mm
03:10 PM 46.3°F7.9°C 42.1°F5.6°C 85% 10.0 mph NNE16.1 kmh NNE 10.0 mph16.1 kmh 29.69 in1005.4 mb 0.00 in0.0 mm 0.00 in0.0 mm 0.20 in5.1 mm
03:15 PM 46.5°F8.1°C 42.6°F5.9°C 86% 9.0 mph NNW14.5 kmh NNW 11.0 mph17.7 kmh 29.72 in1006.4 mb 0.00 in0.0 mm 0.00 in0.0 mm 0.20 in5.1 mm
03:20 PM 46.5°F8.1°C 41.9°F5.5°C 84% 8.0 mph NW12.9 kmh NW 11.0 mph17.7 kmh 29.72 in1006.4 mb 0.00 in0.0 mm 0.00 in0.0 mm 0.20 in5.1 mm
03:25 PM 46.5°F8.1°C 41.9°F5.5°C 84% 6.0 mph NW9.7 kmh NW 11.0 mph17.7 kmh 29.74 in1007.1 mb 0.00 in0.0 mm 0.00 in0.0 mm 0.20 in5.1 mm
03:29 PM 46.3°F7.9°C 41.4°F5.2°C 83% 9.0 mph NW14.5 kmh NW 10.0 mph16.1 kmh 29.76 in1007.8 mb 0.00 in0.0 mm 0.00 in0.0 mm 0.20 in5.1 mm
03:34 PM 46.0°F7.8°C 41.1°F5.1°C 83% 5.0 mph NW8.0 kmh NW 5.0 mph8.0 kmh 29.77 in1008.1 mb 0.00 in0.0 mm 0.00 in0.0 mm 0.20 in5.1 mm
03:40 PM 45.6°F7.6°C 40.4°F4.7°C 82% 15.0 mph NNW24.1 kmh NNW 15.0 mph24.1 kmh 29.77 in1008.1 mb 0.00 in0.0 mm 0.00 in0.0 mm 0.20 in5.1 mm
03:45 PM 45.1°F7.3°C 39.9°F4.4°C 82% 11.0 mph NW17.7 kmh NW 13.0 mph20.9 kmh 29.78 in1008.5 mb 0.00 in0.0 mm 0.00 in0.0 mm 0.20 in5.1 mm
03:50 PM 44.9°F7.2°C 39.8°F4.3°C 82% 16.0 mph NNW25.7 kmh NNW 17.0 mph27.4 kmh 29.78 in1008.5 mb 0.00 in0.0 mm 0.00 in0.0 mm 0.20 in5.1 mm
03:55 PM 44.6°F7.0°C 39.8°F4.3°C 83% 10.0 mph NW16.1 kmh NW 11.0 mph17.7 kmh 29.79 in1008.8 mb 0.00 in0.0 mm 0.00 in0.0 mm 0.20 in5.1 mm
04:00 PM 44.6°F7.0°C 39.8°F4.3°C 83% 9.0 mph NW14.5 kmh NW 12.0 mph19.3 kmh 29.80 in1009.1 mb 0.00 in0.0 mm 0.00 in0.0 mm 0.20 in5.1 mm
04:05 PM 44.5°F6.9°C 39.7°F4.3°C 83% 6.0 mph NW9.7 kmh NW 7.0 mph11.3 kmh 29.81 in1009.5 mb 0.00 in0.0 mm 0.00 in0.0 mm 0.20 in5.1 mm
04:10 PM 44.4°F6.9°C 39.6°F4.2°C 83% 9.0 mph N14.5 kmh N 9.0 mph14.5 kmh 29.81 in1009.5 mb 0.00 in0.0 mm 0.00 in0.0 mm 0.20 in5.1 mm
04:15 PM 44.4°F6.9°C 39.6°F4.2°C 83% 5.0 mph NNW8.0 kmh NNW 8.0 mph12.9 kmh 29.81 in1009.5 mb 0.00 in0.0 mm 0.00 in0.0 mm 0.20 in5.1 mm
04:20 PM 44.5°F6.9°C 39.7°F4.3°C 83% 12.0 mph NW19.3 kmh NW 12.0 mph19.3 kmh 29.82 in1009.8 mb 0.00 in0.0 mm 0.00 in0.0 mm 0.20 in5.1 mm
04:25 PM 44.7°F7.1°C 39.6°F4.2°C 82% 10.0 mph NW16.1 kmh NW 10.0 mph16.1 kmh 29.83 in1010.2 mb 0.00 in0.0 mm 0.00 in0.0 mm 0.20 in5.1 mm
04:30 PM 44.8°F7.1°C 39.3°F4.1°C 81% 6.0 mph NNW9.7 kmh NNW 13.0 mph20.9 kmh 29.83 in1010.2 mb 0.00 in0.0 mm 0.00 in0.0 mm 0.20 in5.1 mm
04:35 PM 44.8°F7.1°C 39.0°F3.9°C 80% 13.0 mph N20.9 kmh N 13.0 mph20.9 kmh 29.84 in1010.5 mb 0.00 in0.0 mm 0.00 in0.0 mm 0.20 in5.1 mm
04:40 PM 44.7°F7.1°C 38.9°F3.8°C 80% 11.0 mph NW17.7 kmh NW 13.0 mph20.9 kmh 29.84 in1010.5 mb 0.00 in0.0 mm 0.00 in0.0 mm 0.20 in5.1 mm
04:45 PM 44.6°F7.0°C 38.8°F3.8°C 80% 12.0 mph NW19.3 kmh NW 12.0 mph19.3 kmh 29.85 in1010.8 mb 0.00 in0.0 mm 0.00 in0.0 mm 0.20 in5.1 mm
04:50 PM 44.6°F7.0°C 38.8°F3.8°C 80% 11.0 mph NNW17.7 kmh NNW 11.0 mph17.7 kmh 29.86 in1011.2 mb 0.00 in0.0 mm 0.00 in0.0 mm 0.20 in5.1 mm
04:55 PM 44.6°F7.0°C 39.1°F3.9°C 81% 10.0 mph NNW16.1 kmh NNW 15.0 mph24.1 kmh 29.86 in1011.2 mb 0.00 in0.0 mm 0.00 in0.0 mm 0.20 in5.1 mm
05:00 PM 44.6°F7.0°C 39.1°F3.9°C 81% 9.0 mph NW14.5 kmh NW 15.0 mph24.1 kmh 29.86 in1011.2 mb 0.00 in0.0 mm 0.00 in0.0 mm 0.20 in5.1 mm
05:05 PM 44.7°F7.1°C 39.2°F4.0°C 81% 8.0 mph NNW12.9 kmh NNW 10.0 mph16.1 kmh 29.87 in1011.5 mb 0.00 in0.0 mm 0.00 in0.0 mm 0.20 in5.1 mm
05:10 PM 44.7°F7.1°C 39.6°F4.2°C 82% 10.0 mph NNW16.1 kmh NNW 12.0 mph19.3 kmh 29.87 in1011.5 mb 0.00 in0.0 mm 0.00 in0.0 mm 0.20 in5.1 mm
05:15 PM 44.9°F7.2°C 39.8°F4.3°C 82% 6.0 mph NNW9.7 kmh NNW 8.0 mph12.9 kmh 29.88 in1011.9 mb 0.00 in0.0 mm 0.00 in0.0 mm 0.20 in5.1 mm
05:20 PM 45.0°F7.2°C 40.2°F4.6°C 83% 13.0 mph N20.9 kmh N 13.0 mph20.9 kmh 29.88 in1011.9 mb 0.00 in0.0 mm 0.00 in0.0 mm 0.20 in5.1 mm
05:24 PM 45.2°F7.3°C 40.4°F4.7°C 83% 4.0 mph NNW6.4 kmh NNW 6.0 mph9.7 kmh 29.88 in1011.9 mb 0.00 in0.0 mm 0.00 in0.0 mm 0.20 in5.1 mm
05:30 PM 45.3°F7.4°C 40.5°F4.7°C 83% 18.0 mph N29.0 kmh N 19.0 mph30.6 kmh 29.89 in1012.2 mb 0.00 in0.0 mm 0.00 in0.0 mm 0.20 in5.1 mm
05:35 PM 45.4°F7.4°C 40.6°F4.8°C 83% 5.0 mph NNW8.0 kmh NNW 12.0 mph19.3 kmh 29.89 in1012.2 mb 0.00 in0.0 mm 0.00 in0.0 mm 0.20 in5.1 mm
05:39 PM 45.5°F7.5°C 40.7°F4.8°C 83% 7.0 mph NNE11.3 kmh NNE 10.0 mph16.1 kmh 29.90 in1012.5 mb 0.00 in0.0 mm 0.00 in0.0 mm 0.20 in5.1 mm
05:45 PM 45.6°F7.6°C 40.7°F4.8°C 83% 9.0 mph N14.5 kmh N 10.0 mph16.1 kmh 29.90 in1012.5 mb 0.00 in0.0 mm 0.00 in0.0 mm 0.20 in5.1 mm
05:50 PM 45.5°F7.5°C 40.7°F4.8°C 83% 13.0 mph N20.9 kmh N 13.0 mph20.9 kmh 29.91 in1012.9 mb 0.00 in0.0 mm 0.00 in0.0 mm 0.20 in5.1 mm
05:55 PM 45.0°F7.2°C 40.5°F4.7°C 84% 9.0 mph N14.5 kmh N 12.0 mph19.3 kmh 29.92 in1013.2 mb 0.00 in0.0 mm 0.00 in0.0 mm 0.20 in5.1 mm
06:00 PM 44.2°F6.8°C 40.3°F4.6°C 86% 8.0 mph NNW12.9 kmh NNW 10.0 mph16.1 kmh 29.92 in1013.2 mb 0.00 in0.0 mm 0.00 in0.0 mm 0.20 in5.1 mm
06:05 PM 43.6°F6.4°C 40.0°F4.4°C 87% 3.0 mph NW4.8 kmh NW 6.0 mph9.7 kmh 29.92 in1013.2 mb 0.00 in0.0 mm 0.00 in0.0 mm 0.20 in5.1 mm
06:09 PM 43.2°F6.2°C 39.9°F4.4°C 88% 12.0 mph NNW19.3 kmh NNW 12.0 mph19.3 kmh 29.92 in1013.2 mb 0.00 in0.0 mm 0.00 in0.0 mm 0.20 in5.1 mm
06:15 PM 43.0°F6.1°C 39.7°F4.3°C 88% 8.0 mph NW12.9 kmh NW 13.0 mph20.9 kmh 29.93 in1013.5 mb 0.00 in0.0 mm 0.00 in0.0 mm 0.20 in5.1 mm
06:20 PM 42.9°F6.1°C 39.6°F4.2°C 88% 5.0 mph NNW8.0 kmh NNW 10.0 mph16.1 kmh 29.93 in1013.5 mb 0.00 in0.0 mm 0.00 in0.0 mm 0.20 in5.1 mm
06:25 PM 42.8°F6.0°C 39.5°F4.2°C 88% 8.0 mph N12.9 kmh N 12.0 mph19.3 kmh 29.93 in1013.5 mb 0.00 in0.0 mm 0.00 in0.0 mm 0.20 in5.1 mm
06:30 PM 42.8°F6.0°C 39.5°F4.2°C 88% 9.0 mph NNW14.5 kmh NNW 9.0 mph14.5 kmh 29.94 in1013.9 mb 0.00 in0.0 mm 0.00 in0.0 mm 0.20 in5.1 mm
06:35 PM 42.7°F5.9°C 39.4°F4.1°C 88% 8.0 mph NW12.9 kmh NW 11.0 mph17.7 kmh 29.95 in1014.2 mb 0.00 in0.0 mm 0.00 in0.0 mm 0.20 in5.1 mm
06:40 PM 42.7°F5.9°C 39.4°F4.1°C 88% 11.0 mph NW17.7 kmh NW 11.0 mph17.7 kmh 29.95 in1014.2 mb 0.00 in0.0 mm 0.00 in0.0 mm 0.20 in5.1 mm
06:45 PM 42.7°F5.9°C 39.4°F4.1°C 88% 4.0 mph NW6.4 kmh NW 5.0 mph8.0 kmh 29.95 in1014.2 mb 0.00 in0.0 mm 0.00 in0.0 mm 0.20 in5.1 mm
06:48 PM 42.6°F5.9°C 39.3°F4.1°C 88% 4.0 mph NW6.4 kmh NW 12.0 mph19.3 kmh 29.95 in1014.2 mb 0.00 in0.0 mm 0.00 in0.0 mm 0.20 in5.1 mm